sensor_id;sensor_type;location;lat;lon;timestamp;P1;durP1;ratioP1;P2;durP2;ratioP2
44214;SDS011;29884;47.450;19.124;2023-06-14T00:00:20;1.60;;;0.95;;
44214;SDS011;29884;47.450;19.124;2023-06-14T00:02:47;1.88;;;1.10;;
44214;SDS011;29884;47.450;19.124;2023-06-14T00:05:13;4.13;;;1.20;;
44214;SDS011;29884;47.450;19.124;2023-06-14T00:07:41;3.55;;;1.13;;
44214;SDS011;29884;47.450;19.124;2023-06-14T00:10:10;4.25;;;1.27;;
44214;SDS011;29884;47.450;19.124;2023-06-14T00:12:38;3.53;;;1.13;;
44214;SDS011;29884;47.450;19.124;2023-06-14T00:15:04;2.22;;;1.13;;
44214;SDS011;29884;47.450;19.124;2023-06-14T00:17:30;2.47;;;1.33;;
44214;SDS011;29884;47.450;19.124;2023-06-14T00:19:59;2.33;;;1.10;;
44214;SDS011;29884;47.450;19.124;2023-06-14T00:22:29;2.20;;;1.25;;
44214;SDS011;29884;47.450;19.124;2023-06-14T00:24:56;2.13;;;1.13;;
44214;SDS011;29884;47.450;19.124;2023-06-14T00:27:22;3.30;;;1.10;;
44214;SDS011;29884;47.450;19.124;2023-06-14T00:29:47;2.70;;;1.42;;
44214;SDS011;29884;47.450;19.124;2023-06-14T00:32:13;2.10;;;1.35;;
44214;SDS011;29884;47.450;19.124;2023-06-14T00:34:39;2.10;;;1.33;;
44214;SDS011;29884;47.450;19.124;2023-06-14T00:37:05;2.72;;;1.38;;
44214;SDS011;29884;47.450;19.124;2023-06-14T00:39:31;3.03;;;1.52;;
44214;SDS011;29884;47.450;19.124;2023-06-14T00:41:57;3.25;;;1.40;;
44214;SDS011;29884;47.450;19.124;2023-06-14T00:44:24;2.85;;;1.50;;
44214;SDS011;29884;47.450;19.124;2023-06-14T00:46:50;3.50;;;1.60;;
44214;SDS011;29884;47.450;19.124;2023-06-14T00:49:16;3.05;;;1.40;;
44214;SDS011;29884;47.450;19.124;2023-06-14T00:51:44;2.95;;;1.60;;
44214;SDS011;29884;47.450;19.124;2023-06-14T00:54:10;2.95;;;1.77;;
44214;SDS011;29884;47.450;19.124;2023-06-14T00:56:36;3.33;;;1.92;;
44214;SDS011;29884;47.450;19.124;2023-06-14T00:59:02;3.20;;;1.60;;
44214;SDS011;29884;47.450;19.124;2023-06-14T01:01:29;2.85;;;1.42;;
44214;SDS011;29884;47.450;19.124;2023-06-14T01:03:59;5.20;;;1.83;;
44214;SDS011;29884;47.450;19.124;2023-06-14T01:06:57;3.70;;;1.63;;
44214;SDS011;29884;47.450;19.124;2023-06-14T01:09:55;3.33;;;1.83;;
44214;SDS011;29884;47.450;19.124;2023-06-14T01:12:31;4.07;;;1.52;;
44214;SDS011;29884;47.450;19.124;2023-06-14T01:15:18;3.00;;;1.75;;
44214;SDS011;29884;47.450;19.124;2023-06-14T01:17:45;2.70;;;1.70;;
44214;SDS011;29884;47.450;19.124;2023-06-14T01:20:16;3.78;;;1.83;;
44214;SDS011;29884;47.450;19.124;2023-06-14T01:22:51;2.83;;;1.90;;
44214;SDS011;29884;47.450;19.124;2023-06-14T01:25:20;3.25;;;1.75;;
44214;SDS011;29884;47.450;19.124;2023-06-14T01:27:52;3.88;;;2.10;;
44214;SDS011;29884;47.450;19.124;2023-06-14T01:30:21;3.40;;;2.22;;
44214;SDS011;29884;47.450;19.124;2023-06-14T01:32:50;3.67;;;2.17;;
44214;SDS011;29884;47.450;19.124;2023-06-14T01:35:18;3.95;;;2.20;;
44214;SDS011;29884;47.450;19.124;2023-06-14T01:37:44;5.15;;;2.38;;
44214;SDS011;29884;47.450;19.124;2023-06-14T01:40:13;4.90;;;2.28;;
44214;SDS011;29884;47.450;19.124;2023-06-14T01:42:40;5.63;;;2.10;;
44214;SDS011;29884;47.450;19.124;2023-06-14T01:45:07;4.20;;;2.33;;
44214;SDS011;29884;47.450;19.124;2023-06-14T01:47:35;4.18;;;2.60;;
44214;SDS011;29884;47.450;19.124;2023-06-14T01:50:01;5.20;;;2.88;;
44214;SDS011;29884;47.450;19.124;2023-06-14T01:52:28;5.28;;;3.08;;
44214;SDS011;29884;47.450;19.124;2023-06-14T01:54:54;7.88;;;2.90;;
44214;SDS011;29884;47.450;19.124;2023-06-14T01:57:19;4.55;;;3.00;;
44214;SDS011;29884;47.450;19.124;2023-06-14T01:59:46;7.93;;;3.35;;
44214;SDS011;29884;47.450;19.124;2023-06-14T02:02:13;5.35;;;3.25;;
44214;SDS011;29884;47.450;19.124;2023-06-14T02:04:40;5.78;;;3.22;;
44214;SDS011;29884;47.450;19.124;2023-06-14T02:07:06;6.45;;;3.70;;
44214;SDS011;29884;47.450;19.124;2023-06-14T02:09:33;7.53;;;3.63;;
44214;SDS011;29884;47.450;19.124;2023-06-14T02:12:00;5.50;;;3.70;;
44214;SDS011;29884;47.450;19.124;2023-06-14T02:14:26;7.65;;;3.50;;
44214;SDS011;29884;47.450;19.124;2023-06-14T02:16:52;5.28;;;3.72;;
44214;SDS011;29884;47.450;19.124;2023-06-14T02:19:18;6.53;;;3.75;;
44214;SDS011;29884;47.450;19.124;2023-06-14T02:21:45;5.68;;;3.55;;
44214;SDS011;29884;47.450;19.124;2023-06-14T02:24:11;6.95;;;3.83;;
44214;SDS011;29884;47.450;19.124;2023-06-14T02:26:38;6.78;;;3.72;;
44214;SDS011;29884;47.450;19.124;2023-06-14T02:29:04;8.77;;;4.75;;
44214;SDS011;29884;47.450;19.124;2023-06-14T02:31:31;7.25;;;4.43;;
44214;SDS011;29884;47.450;19.124;2023-06-14T02:33:57;9.05;;;4.72;;
44214;SDS011;29884;47.450;19.124;2023-06-14T02:36:23;7.65;;;4.68;;
44214;SDS011;29884;47.450;19.124;2023-06-14T02:38:49;8.85;;;4.95;;
44214;SDS011;29884;47.450;19.124;2023-06-14T02:41:15;10.15;;;5.13;;
44214;SDS011;29884;47.450;19.124;2023-06-14T02:43:40;10.40;;;4.90;;
44214;SDS011;29884;47.450;19.124;2023-06-14T02:46:06;11.07;;;5.47;;
44214;SDS011;29884;47.450;19.124;2023-06-14T02:48:32;9.05;;;5.57;;
44214;SDS011;29884;47.450;19.124;2023-06-14T02:50:58;12.02;;;6.03;;
44214;SDS011;29884;47.450;19.124;2023-06-14T02:53:24;10.88;;;5.95;;
44214;SDS011;29884;47.450;19.124;2023-06-14T02:55:50;9.95;;;5.60;;
44214;SDS011;29884;47.450;19.124;2023-06-14T02:58:16;10.30;;;5.53;;
44214;SDS011;29884;47.450;19.124;2023-06-14T03:00:43;9.75;;;6.05;;
44214;SDS011;29884;47.450;19.124;2023-06-14T03:03:09;10.48;;;5.32;;
44214;SDS011;29884;47.450;19.124;2023-06-14T03:05:40;8.02;;;5.15;;
44214;SDS011;29884;47.450;19.124;2023-06-14T03:08:11;9.40;;;5.80;;
44214;SDS011;29884;47.450;19.124;2023-06-14T03:10:42;10.88;;;5.43;;
44214;SDS011;29884;47.450;19.124;2023-06-14T03:13:08;9.10;;;5.47;;
44214;SDS011;29884;47.450;19.124;2023-06-14T03:15:35;9.50;;;5.45;;
44214;SDS011;29884;47.450;19.124;2023-06-14T03:18:01;8.88;;;5.47;;
44214;SDS011;29884;47.450;19.124;2023-06-14T03:20:28;7.97;;;4.93;;
44214;SDS011;29884;47.450;19.124;2023-06-14T03:22:59;10.68;;;5.45;;
44214;SDS011;29884;47.450;19.124;2023-06-14T03:25:25;10.27;;;5.32;;
44214;SDS011;29884;47.450;19.124;2023-06-14T03:27:54;8.20;;;5.20;;
44214;SDS011;29884;47.450;19.124;2023-06-14T03:30:21;8.95;;;5.00;;
44214;SDS011;29884;47.450;19.124;2023-06-14T03:32:46;9.93;;;5.30;;
44214;SDS011;29884;47.450;19.124;2023-06-14T03:35:12;10.70;;;5.22;;
44214;SDS011;29884;47.450;19.124;2023-06-14T03:37:45;10.57;;;5.40;;
44214;SDS011;29884;47.450;19.124;2023-06-14T03:40:12;18.15;;;5.82;;
44214;SDS011;29884;47.450;19.124;2023-06-14T03:42:41;19.58;;;6.47;;
44214;SDS011;29884;47.450;19.124;2023-06-14T03:45:07;12.98;;;5.38;;
44214;SDS011;29884;47.450;19.124;2023-06-14T03:47:33;11.93;;;5.20;;
44214;SDS011;29884;47.450;19.124;2023-06-14T03:50:00;8.30;;;5.13;;
44214;SDS011;29884;47.450;19.124;2023-06-14T03:52:26;9.07;;;5.18;;
44214;SDS011;29884;47.450;19.124;2023-06-14T03:54:52;7.53;;;4.25;;
44214;SDS011;29884;47.450;19.124;2023-06-14T03:57:18;9.40;;;5.18;;
44214;SDS011;29884;47.450;19.124;2023-06-14T03:59:45;7.30;;;4.32;;
44214;SDS011;29884;47.450;19.124;2023-06-14T04:02:12;8.57;;;4.68;;
44214;SDS011;29884;47.450;19.124;2023-06-14T04:04:41;8.43;;;4.93;;
44214;SDS011;29884;47.450;19.124;2023-06-14T04:07:13;6.63;;;4.68;;
44214;SDS011;29884;47.450;19.124;2023-06-14T04:09:45;8.27;;;4.78;;
44214;SDS011;29884;47.450;19.124;2023-06-14T04:12:11;7.72;;;4.93;;
44214;SDS011;29884;47.450;19.124;2023-06-14T04:14:37;8.32;;;4.85;;
44214;SDS011;29884;47.450;19.124;2023-06-14T04:17:06;8.27;;;5.22;;
44214;SDS011;29884;47.450;19.124;2023-06-14T04:19:32;9.43;;;4.88;;
44214;SDS011;29884;47.450;19.124;2023-06-14T04:21:58;7.63;;;5.07;;
44214;SDS011;29884;47.450;19.124;2023-06-14T04:24:27;8.07;;;4.65;;
44214;SDS011;29884;47.450;19.124;2023-06-14T04:26:59;7.63;;;4.38;;
44214;SDS011;29884;47.450;19.124;2023-06-14T04:29:29;7.28;;;4.18;;
44214;SDS011;29884;47.450;19.124;2023-06-14T04:31:56;9.90;;;4.38;;
44214;SDS011;29884;47.450;19.124;2023-06-14T04:34:26;6.80;;;3.90;;
44214;SDS011;29884;47.450;19.124;2023-06-14T04:36:55;7.95;;;4.32;;
44214;SDS011;29884;47.450;19.124;2023-06-14T04:39:21;7.72;;;4.25;;
44214;SDS011;29884;47.450;19.124;2023-06-14T04:41:48;5.72;;;3.70;;
44214;SDS011;29884;47.450;19.124;2023-06-14T04:44:17;6.70;;;3.30;;
44214;SDS011;29884;47.450;19.124;2023-06-14T04:46:44;6.15;;;3.53;;
44214;SDS011;29884;47.450;19.124;2023-06-14T04:49:14;7.13;;;3.85;;
44214;SDS011;29884;47.450;19.124;2023-06-14T04:51:41;6.65;;;4.05;;
44214;SDS011;29884;47.450;19.124;2023-06-14T04:54:07;6.80;;;3.47;;
44214;SDS011;29884;47.450;19.124;2023-06-14T04:56:35;6.10;;;3.83;;
44214;SDS011;29884;47.450;19.124;2023-06-14T04:59:04;6.38;;;3.40;;
44214;SDS011;29884;47.450;19.124;2023-06-14T05:01:30;7.82;;;4.30;;
44214;SDS011;29884;47.450;19.124;2023-06-14T05:03:59;6.15;;;3.40;;
44214;SDS011;29884;47.450;19.124;2023-06-14T05:06:28;6.45;;;3.75;;
44214;SDS011;29884;47.450;19.124;2023-06-14T05:08:55;7.78;;;3.58;;
44214;SDS011;29884;47.450;19.124;2023-06-14T05:11:21;5.40;;;3.60;;
44214;SDS011;29884;47.450;19.124;2023-06-14T05:13:49;6.72;;;3.45;;
44214;SDS011;29884;47.450;19.124;2023-06-14T05:16:15;6.15;;;3.60;;
44214;SDS011;29884;47.450;19.124;2023-06-14T05:18:44;7.05;;;3.50;;
44214;SDS011;29884;47.450;19.124;2023-06-14T05:21:11;7.43;;;4.47;;
44214;SDS011;29884;47.450;19.124;2023-06-14T05:23:36;6.15;;;3.80;;
44214;SDS011;29884;47.450;19.124;2023-06-14T05:26:02;6.15;;;3.97;;
44214;SDS011;29884;47.450;19.124;2023-06-14T05:28:29;5.45;;;3.45;;
44214;SDS011;29884;47.450;19.124;2023-06-14T05:30:56;5.70;;;3.45;;
44214;SDS011;29884;47.450;19.124;2023-06-14T05:33:23;6.38;;;3.40;;
44214;SDS011;29884;47.450;19.124;2023-06-14T05:35:48;4.95;;;3.17;;
44214;SDS011;29884;47.450;19.124;2023-06-14T05:38:15;5.20;;;3.28;;
44214;SDS011;29884;47.450;19.124;2023-06-14T05:40:40;6.15;;;3.50;;
44214;SDS011;29884;47.450;19.124;2023-06-14T05:43:06;7.13;;;3.33;;
44214;SDS011;29884;47.450;19.124;2023-06-14T05:45:32;6.05;;;3.40;;
44214;SDS011;29884;47.450;19.124;2023-06-14T05:47:57;7.97;;;3.33;;
44214;SDS011;29884;47.450;19.124;2023-06-14T05:50:23;5.05;;;3.08;;
44214;SDS011;29884;47.450;19.124;2023-06-14T05:52:49;4.13;;;2.67;;
44214;SDS011;29884;47.450;19.124;2023-06-14T05:55:16;6.60;;;2.92;;
44214;SDS011;29884;47.450;19.124;2023-06-14T05:57:41;3.53;;;2.38;;
44214;SDS011;29884;47.450;19.124;2023-06-14T06:00:07;4.60;;;2.92;;
44214;SDS011;29884;47.450;19.124;2023-06-14T06:02:44;5.95;;;2.63;;
44214;SDS011;29884;47.450;19.124;2023-06-14T06:05:13;6.07;;;2.72;;
44214;SDS011;29884;47.450;19.124;2023-06-14T06:07:40;5.53;;;2.85;;
44214;SDS011;29884;47.450;19.124;2023-06-14T06:10:07;4.10;;;2.78;;
44214;SDS011;29884;47.450;19.124;2023-06-14T06:12:33;6.38;;;3.00;;
44214;SDS011;29884;47.450;19.124;2023-06-14T06:14:59;6.20;;;3.13;;
44214;SDS011;29884;47.450;19.124;2023-06-14T06:17:25;7.07;;;3.03;;
44214;SDS011;29884;47.450;19.124;2023-06-14T06:19:51;5.43;;;2.63;;
44214;SDS011;29884;47.450;19.124;2023-06-14T06:22:17;5.32;;;2.58;;
44214;SDS011;29884;47.450;19.124;2023-06-14T06:24:43;4.38;;;2.55;;
44214;SDS011;29884;47.450;19.124;2023-06-14T06:27:09;5.32;;;2.90;;
44214;SDS011;29884;47.450;19.124;2023-06-14T06:29:35;4.40;;;2.33;;
44214;SDS011;29884;47.450;19.124;2023-06-14T06:32:01;4.55;;;2.38;;
44214;SDS011;29884;47.450;19.124;2023-06-14T06:34:27;5.85;;;2.63;;
44214;SDS011;29884;47.450;19.124;2023-06-14T06:36:53;3.85;;;2.78;;
44214;SDS011;29884;47.450;19.124;2023-06-14T06:39:19;4.22;;;2.35;;
44214;SDS011;29884;47.450;19.124;2023-06-14T06:41:44;4.88;;;2.33;;
44214;SDS011;29884;47.450;19.124;2023-06-14T06:44:10;3.25;;;2.08;;
44214;SDS011;29884;47.450;19.124;2023-06-14T06:46:38;4.28;;;2.40;;
44214;SDS011;29884;47.450;19.124;2023-06-14T06:49:06;3.83;;;2.42;;
44214;SDS011;29884;47.450;19.124;2023-06-14T06:51:32;4.05;;;2.20;;
44214;SDS011;29884;47.450;19.124;2023-06-14T06:53:58;4.82;;;2.55;;
44214;SDS011;29884;47.450;19.124;2023-06-14T06:56:23;4.80;;;2.35;;
44214;SDS011;29884;47.450;19.124;2023-06-14T06:58:49;4.22;;;2.40;;
44214;SDS011;29884;47.450;19.124;2023-06-14T07:01:16;2.75;;;2.00;;
44214;SDS011;29884;47.450;19.124;2023-06-14T07:03:42;4.03;;;2.17;;
44214;SDS011;29884;47.450;19.124;2023-06-14T07:06:08;4.63;;;2.20;;
44214;SDS011;29884;47.450;19.124;2023-06-14T07:08:35;3.33;;;1.80;;
44214;SDS011;29884;47.450;19.124;2023-06-14T07:11:03;4.65;;;2.03;;
44214;SDS011;29884;47.450;19.124;2023-06-14T07:13:30;3.17;;;1.50;;
44214;SDS011;29884;47.450;19.124;2023-06-14T07:15:57;5.15;;;1.92;;
44214;SDS011;29884;47.450;19.124;2023-06-14T07:18:25;3.60;;;1.90;;
44214;SDS011;29884;47.450;19.124;2023-06-14T07:20:50;3.67;;;1.80;;
44214;SDS011;29884;47.450;19.124;2023-06-14T07:23:17;2.75;;;1.60;;
44214;SDS011;29884;47.450;19.124;2023-06-14T07:25:42;3.10;;;1.63;;
44214;SDS011;29884;47.450;19.124;2023-06-14T07:28:08;3.08;;;1.88;;
44214;SDS011;29884;47.450;19.124;2023-06-14T07:30:35;5.05;;;1.70;;
44214;SDS011;29884;47.450;19.124;2023-06-14T07:33:00;4.32;;;2.00;;
44214;SDS011;29884;47.450;19.124;2023-06-14T07:35:26;5.93;;;2.08;;
44214;SDS011;29884;47.450;19.124;2023-06-14T07:37:52;3.55;;;1.70;;
44214;SDS011;29884;47.450;19.124;2023-06-14T07:40:17;4.13;;;1.73;;
44214;SDS011;29884;47.450;19.124;2023-06-14T07:42:43;2.80;;;1.80;;
44214;SDS011;29884;47.450;19.124;2023-06-14T07:45:09;4.10;;;1.55;;
44214;SDS011;29884;47.450;19.124;2023-06-14T07:47:37;3.88;;;1.52;;
44214;SDS011;29884;47.450;19.124;2023-06-14T07:50:03;2.67;;;1.48;;
44214;SDS011;29884;47.450;19.124;2023-06-14T07:52:29;3.20;;;1.77;;
44214;SDS011;29884;47.450;19.124;2023-06-14T07:54:55;3.58;;;1.77;;
44214;SDS011;29884;47.450;19.124;2023-06-14T07:57:22;4.05;;;1.90;;
44214;SDS011;29884;47.450;19.124;2023-06-14T07:59:47;4.40;;;1.92;;
44214;SDS011;29884;47.450;19.124;2023-06-14T08:02:13;4.30;;;2.33;;
44214;SDS011;29884;47.450;19.124;2023-06-14T08:04:39;3.78;;;1.80;;
44214;SDS011;29884;47.450;19.124;2023-06-14T08:07:05;3.95;;;1.90;;
44214;SDS011;29884;47.450;19.124;2023-06-14T08:09:32;4.70;;;2.05;;
44214;SDS011;29884;47.450;19.124;2023-06-14T08:11:57;4.30;;;2.33;;
44214;SDS011;29884;47.450;19.124;2023-06-14T08:14:23;4.85;;;1.63;;
44214;SDS011;29884;47.450;19.124;2023-06-14T08:16:49;2.65;;;1.58;;
44214;SDS011;29884;47.450;19.124;2023-06-14T08:19:15;2.85;;;1.50;;
44214;SDS011;29884;47.450;19.124;2023-06-14T08:21:41;5.50;;;1.70;;
44214;SDS011;29884;47.450;19.124;2023-06-14T08:24:08;2.38;;;1.60;;
44214;SDS011;29884;47.450;19.124;2023-06-14T08:26:37;2.50;;;1.55;;
44214;SDS011;29884;47.450;19.124;2023-06-14T08:29:04;4.07;;;1.63;;
44214;SDS011;29884;47.450;19.124;2023-06-14T08:31:31;3.22;;;1.60;;
44214;SDS011;29884;47.450;19.124;2023-06-14T08:33:58;4.50;;;2.22;;
44214;SDS011;29884;47.450;19.124;2023-06-14T08:36:23;6.00;;;1.80;;
44214;SDS011;29884;47.450;19.124;2023-06-14T08:38:49;2.78;;;1.60;;
44214;SDS011;29884;47.450;19.124;2023-06-14T08:41:19;2.53;;;1.55;;
44214;SDS011;29884;47.450;19.124;2023-06-14T08:46:14;3.45;;;1.58;;
44214;SDS011;29884;47.450;19.124;2023-06-14T08:48:46;3.10;;;1.40;;
44214;SDS011;29884;47.450;19.124;2023-06-14T08:51:14;3.05;;;1.67;;
44214;SDS011;29884;47.450;19.124;2023-06-14T08:53:44;2.40;;;1.30;;
44214;SDS011;29884;47.450;19.124;2023-06-14T08:56:10;2.38;;;1.23;;
44214;SDS011;29884;47.450;19.124;2023-06-14T08:58:47;2.58;;;1.13;;
44214;SDS011;29884;47.450;19.124;2023-06-14T09:01:14;2.13;;;1.17;;
44214;SDS011;29884;47.450;19.124;2023-06-14T09:03:42;3.58;;;1.42;;
44214;SDS011;29884;47.450;19.124;2023-06-14T09:06:09;2.65;;;1.40;;
44214;SDS011;29884;47.450;19.124;2023-06-14T09:08:47;2.25;;;1.35;;
44214;SDS011;29884;47.450;19.124;2023-06-14T09:11:14;4.13;;;1.60;;
44214;SDS011;29884;47.450;19.124;2023-06-14T09:13:43;2.65;;;1.30;;
44214;SDS011;29884;47.450;19.124;2023-06-14T09:16:12;3.70;;;1.50;;
44214;SDS011;29884;47.450;19.124;2023-06-14T09:18:43;3.17;;;1.45;;
44214;SDS011;29884;47.450;19.124;2023-06-14T09:21:12;5.03;;;1.50;;
44214;SDS011;29884;47.450;19.124;2023-06-14T09:23:43;2.83;;;1.65;;
44214;SDS011;29884;47.450;19.124;2023-06-14T09:26:11;4.20;;;1.30;;
44214;SDS011;29884;47.450;19.124;2023-06-14T09:28:47;3.88;;;1.30;;
44214;SDS011;29884;47.450;19.124;2023-06-14T09:31:14;3.80;;;1.52;;
44214;SDS011;29884;47.450;19.124;2023-06-14T09:33:42;2.78;;;1.80;;
44214;SDS011;29884;47.450;19.124;2023-06-14T09:36:13;5.35;;;1.77;;
44214;SDS011;29884;47.450;19.124;2023-06-14T09:38:58;3.45;;;1.50;;
44214;SDS011;29884;47.450;19.124;2023-06-14T09:44:02;4.80;;;1.40;;
44214;SDS011;29884;47.450;19.124;2023-06-14T09:46:30;2.63;;;1.20;;
44214;SDS011;29884;47.450;19.124;2023-06-14T09:48:57;3.40;;;1.50;;
44214;SDS011;29884;47.450;19.124;2023-06-14T09:51:23;3.58;;;1.20;;
44214;SDS011;29884;47.450;19.124;2023-06-14T09:53:50;2.50;;;1.27;;
44214;SDS011;29884;47.450;19.124;2023-06-14T09:56:22;1.95;;;1.23;;
44214;SDS011;29884;47.450;19.124;2023-06-14T09:58:55;2.72;;;1.20;;
44214;SDS011;29884;47.450;19.124;2023-06-14T10:01:22;3.38;;;1.17;;
44214;SDS011;29884;47.450;19.124;2023-06-14T10:03:50;2.42;;;1.10;;
44214;SDS011;29884;47.450;19.124;2023-06-14T10:06:43;3.53;;;1.17;;
44214;SDS011;29884;47.450;19.124;2023-06-14T10:09:11;6.28;;;1.50;;
44214;SDS011;29884;47.450;19.124;2023-06-14T10:11:37;3.05;;;1.20;;
44214;SDS011;29884;47.450;19.124;2023-06-14T10:14:08;1.85;;;1.02;;
44214;SDS011;29884;47.450;19.124;2023-06-14T10:16:42;3.85;;;1.30;;
44214;SDS011;29884;47.450;19.124;2023-06-14T10:22:04;2.17;;;1.10;;
44214;SDS011;29884;47.450;19.124;2023-06-14T10:24:43;2.05;;;0.90;;
44214;SDS011;29884;47.450;19.124;2023-06-14T10:27:13;5.60;;;0.80;;
44214;SDS011;29884;47.450;19.124;2023-06-14T10:32:21;3.33;;;0.90;;
44214;SDS011;29884;47.450;19.124;2023-06-14T10:37:29;1.23;;;0.80;;
44214;SDS011;29884;47.450;19.124;2023-06-14T10:39:55;1.10;;;0.60;;
44214;SDS011;29884;47.450;19.124;2023-06-14T10:42:21;1.10;;;0.60;;
44214;SDS011;29884;47.450;19.124;2023-06-14T10:44:51;1.52;;;0.60;;
44214;SDS011;29884;47.450;19.124;2023-06-14T10:47:34;2.75;;;0.80;;
44214;SDS011;29884;47.450;19.124;2023-06-14T10:50:09;1.00;;;0.60;;
44214;SDS011;29884;47.450;19.124;2023-06-14T10:52:38;1.27;;;0.60;;
44214;SDS011;29884;47.450;19.124;2023-06-14T10:57:39;2.08;;;0.80;;
44214;SDS011;29884;47.450;19.124;2023-06-14T11:00:07;3.15;;;0.85;;
44214;SDS011;29884;47.450;19.124;2023-06-14T11:05:08;1.70;;;0.80;;
44214;SDS011;29884;47.450;19.124;2023-06-14T11:13:02;1.53;;;0.77;;
44214;SDS011;29884;47.450;19.124;2023-06-14T11:15:29;1.23;;;0.70;;
44214;SDS011;29884;47.450;19.124;2023-06-14T11:18:01;1.65;;;0.90;;
44214;SDS011;29884;47.450;19.124;2023-06-14T11:20:31;1.23;;;0.82;;
44214;SDS011;29884;47.450;19.124;2023-06-14T11:22:57;1.77;;;0.90;;
44214;SDS011;29884;47.450;19.124;2023-06-14T11:25:24;1.75;;;0.75;;
44214;SDS011;29884;47.450;19.124;2023-06-14T11:27:51;2.38;;;0.80;;
44214;SDS011;29884;47.450;19.124;2023-06-14T11:30:18;1.10;;;0.73;;
44214;SDS011;29884;47.450;19.124;2023-06-14T11:32:47;1.23;;;0.70;;
44214;SDS011;29884;47.450;19.124;2023-06-14T11:35:13;2.72;;;0.80;;
44214;SDS011;29884;47.450;19.124;2023-06-14T11:37:41;2.75;;;0.77;;
44214;SDS011;29884;47.450;19.124;2023-06-14T11:40:07;2.65;;;0.80;;
44214;SDS011;29884;47.450;19.124;2023-06-14T11:42:38;2.33;;;0.90;;
44214;SDS011;29884;47.450;19.124;2023-06-14T11:45:08;1.25;;;0.70;;
44214;SDS011;29884;47.450;19.124;2023-06-14T11:47:35;1.40;;;0.80;;
44214;SDS011;29884;47.450;19.124;2023-06-14T11:50:02;1.73;;;0.82;;
44214;SDS011;29884;47.450;19.124;2023-06-14T11:52:30;1.80;;;0.95;;
44214;SDS011;29884;47.450;19.124;2023-06-14T11:54:56;1.77;;;0.90;;
44214;SDS011;29884;47.450;19.124;2023-06-14T11:57:23;1.60;;;0.80;;
44214;SDS011;29884;47.450;19.124;2023-06-14T11:59:50;1.10;;;0.80;;
44214;SDS011;29884;47.450;19.124;2023-06-14T12:02:16;4.68;;;0.80;;
44214;SDS011;29884;47.450;19.124;2023-06-14T12:04:43;2.25;;;0.90;;
44214;SDS011;29884;47.450;19.124;2023-06-14T12:07:12;2.65;;;0.93;;
44214;SDS011;29884;47.450;19.124;2023-06-14T12:12:17;3.30;;;0.90;;
44214;SDS011;29884;47.450;19.124;2023-06-14T12:14:43;3.25;;;0.88;;
44214;SDS011;29884;47.450;19.124;2023-06-14T12:17:09;2.80;;;0.75;;
44214;SDS011;29884;47.450;19.124;2023-06-14T12:19:41;2.53;;;0.80;;
44214;SDS011;29884;47.450;19.124;2023-06-14T12:22:11;1.25;;;0.80;;
44214;SDS011;29884;47.450;19.124;2023-06-14T12:24:42;2.77;;;1.00;;
44214;SDS011;29884;47.450;19.124;2023-06-14T12:27:09;1.90;;;0.80;;
44214;SDS011;29884;47.450;19.124;2023-06-14T12:29:40;2.88;;;0.80;;
44214;SDS011;29884;47.450;19.124;2023-06-14T12:32:09;2.45;;;0.90;;
44214;SDS011;29884;47.450;19.124;2023-06-14T12:34:35;1.85;;;0.80;;
44214;SDS011;29884;47.450;19.124;2023-06-14T12:37:02;1.65;;;0.80;;
44214;SDS011;29884;47.450;19.124;2023-06-14T12:39:29;2.90;;;0.85;;
44214;SDS011;29884;47.450;19.124;2023-06-14T12:41:56;1.67;;;0.77;;
44214;SDS011;29884;47.450;19.124;2023-06-14T12:44:22;1.60;;;0.85;;
44214;SDS011;29884;47.450;19.124;2023-06-14T12:46:48;2.33;;;0.90;;
44214;SDS011;29884;47.450;19.124;2023-06-14T12:49:17;1.88;;;0.70;;
44214;SDS011;29884;47.450;19.124;2023-06-14T12:51:43;5.20;;;0.88;;
44214;SDS011;29884;47.450;19.124;2023-06-14T12:54:08;2.33;;;0.80;;
44214;SDS011;29884;47.450;19.124;2023-06-14T12:56:34;1.30;;;0.75;;
44214;SDS011;29884;47.450;19.124;2023-06-14T12:59:00;1.40;;;0.85;;
44214;SDS011;29884;47.450;19.124;2023-06-14T13:01:27;4.55;;;0.90;;
44214;SDS011;29884;47.450;19.124;2023-06-14T13:03:52;2.00;;;1.25;;
44214;SDS011;29884;47.450;19.124;2023-06-14T13:06:21;1.35;;;0.90;;
44214;SDS011;29884;47.450;19.124;2023-06-14T13:08:47;2.50;;;0.90;;
44214;SDS011;29884;47.450;19.124;2023-06-14T13:11:14;1.98;;;0.82;;
44214;SDS011;29884;47.450;19.124;2023-06-14T13:13:39;3.15;;;0.90;;
44214;SDS011;29884;47.450;19.124;2023-06-14T13:16:05;2.40;;;0.82;;
44214;SDS011;29884;47.450;19.124;2023-06-14T13:18:31;1.30;;;0.80;;
44214;SDS011;29884;47.450;19.124;2023-06-14T13:20:56;1.75;;;0.90;;
44214;SDS011;29884;47.450;19.124;2023-06-14T13:23:22;1.50;;;0.85;;
44214;SDS011;29884;47.450;19.124;2023-06-14T13:25:48;2.13;;;1.00;;
44214;SDS011;29884;47.450;19.124;2023-06-14T13:28:17;2.10;;;0.80;;
44214;SDS011;29884;47.450;19.124;2023-06-14T13:30:43;1.80;;;0.88;;
44214;SDS011;29884;47.450;19.124;2023-06-14T13:33:08;1.88;;;0.90;;
44214;SDS011;29884;47.450;19.124;2023-06-14T13:35:34;2.80;;;0.90;;
44214;SDS011;29884;47.450;19.124;2023-06-14T13:38:00;1.48;;;0.80;;
44214;SDS011;29884;47.450;19.124;2023-06-14T13:40:26;1.48;;;0.80;;
44214;SDS011;29884;47.450;19.124;2023-06-14T13:42:52;3.17;;;0.85;;
44214;SDS011;29884;47.450;19.124;2023-06-14T13:45:18;3.47;;;0.93;;
44214;SDS011;29884;47.450;19.124;2023-06-14T13:47:43;1.38;;;0.88;;
44214;SDS011;29884;47.450;19.124;2023-06-14T13:50:10;1.80;;;0.90;;
44214;SDS011;29884;47.450;19.124;2023-06-14T13:52:36;1.73;;;0.95;;
44214;SDS011;29884;47.450;19.124;2023-06-14T13:55:02;1.30;;;0.80;;
44214;SDS011;29884;47.450;19.124;2023-06-14T13:57:27;3.33;;;0.93;;
44214;SDS011;29884;47.450;19.124;2023-06-14T13:59:53;1.63;;;0.90;;
44214;SDS011;29884;47.450;19.124;2023-06-14T14:02:20;1.50;;;1.00;;
44214;SDS011;29884;47.450;19.124;2023-06-14T14:04:46;4.15;;;0.95;;
44214;SDS011;29884;47.450;19.124;2023-06-14T14:07:17;2.58;;;1.00;;
44214;SDS011;29884;47.450;19.124;2023-06-14T14:09:44;2.45;;;0.90;;
44214;SDS011;29884;47.450;19.124;2023-06-14T14:12:09;3.58;;;0.98;;
44214;SDS011;29884;47.450;19.124;2023-06-14T14:14:36;2.28;;;0.80;;
44214;SDS011;29884;47.450;19.124;2023-06-14T14:17:02;1.95;;;0.80;;
44214;SDS011;29884;47.450;19.124;2023-06-14T14:19:29;1.77;;;0.80;;
44214;SDS011;29884;47.450;19.124;2023-06-14T14:21:55;3.10;;;0.90;;
44214;SDS011;29884;47.450;19.124;2023-06-14T14:24:20;1.55;;;0.90;;
44214;SDS011;29884;47.450;19.124;2023-06-14T14:26:46;1.50;;;0.98;;
44214;SDS011;29884;47.450;19.124;2023-06-14T14:29:13;2.00;;;0.80;;
44214;SDS011;29884;47.450;19.124;2023-06-14T14:31:39;1.05;;;0.80;;
44214;SDS011;29884;47.450;19.124;2023-06-14T14:34:05;1.60;;;0.90;;
44214;SDS011;29884;47.450;19.124;2023-06-14T14:36:31;2.22;;;0.80;;
44214;SDS011;29884;47.450;19.124;2023-06-14T14:38:58;3.47;;;1.00;;
44214;SDS011;29884;47.450;19.124;2023-06-14T14:41:24;1.83;;;0.90;;
44214;SDS011;29884;47.450;19.124;2023-06-14T14:43:50;1.60;;;0.80;;
44214;SDS011;29884;47.450;19.124;2023-06-14T14:46:15;1.35;;;0.90;;
44214;SDS011;29884;47.450;19.124;2023-06-14T14:48:41;1.27;;;0.80;;
44214;SDS011;29884;47.450;19.124;2023-06-14T14:51:07;1.45;;;0.80;;
44214;SDS011;29884;47.450;19.124;2023-06-14T14:53:33;1.42;;;0.80;;
44214;SDS011;29884;47.450;19.124;2023-06-14T14:55:59;2.17;;;0.90;;
44214;SDS011;29884;47.450;19.124;2023-06-14T14:58:25;1.30;;;0.80;;
44214;SDS011;29884;47.450;19.124;2023-06-14T15:00:51;2.83;;;0.90;;